Time;durP1;ratioP1;P1;durP2;ratioP2;P2;SDS_P1;SDS_P2;PMS_P1;PMS_P2;Temp;Humidity;BMP_temperature;BMP_pressure;BME280_temperature;BME280_humidity;BME280_pressure;Samples;Min_cycle;Max_cycle;Signal;HPM_P1;HPM_P2
2023/02/01 00:01:48;;;;;;;18.90;8.70;;;6.20;99.90;;;;;;2617676;54;20121;-77
2023/02/01 00:07:37;;;;;;;11.77;7.27;;;6.40;99.90;;;;;;2616956;54;20122;-75
2023/02/01 00:13:25;;;;;;;27.80;7.90;;;6.40;99.90;;;;;;2616577;54;20415;-76
2023/02/01 00:19:15;;;;;;;19.60;8.80;;;6.20;99.90;;;;;;2616825;54;20656;-75
2023/02/01 00:25:03;;;;;;;15.33;6.90;;;6.30;99.90;;;;;;2616413;39;20821;-76
2023/02/01 00:31:00;;;;;;;12.83;5.47;;;6.30;99.90;;;;;;2614710;54;20415;-76
2023/02/01 00:34:22;;;;;;;19.60;6.50;;;6.30;99.90;;;;;;2614365;54;21055;-76
2023/02/01 00:36:47;;;;;;;11.50;7.33;;;6.30;99.90;;;;;;2614999;39;20862;-76
2023/02/01 00:45:57;;;;;;;10.07;4.50;;;6.20;99.90;;;;;;2614794;54;20374;-76
2023/02/01 00:51:44;;;;;;;11.97;7.37;;;6.20;99.90;;;;;;2614330;54;20527;-76
2023/02/01 00:57:31;;;;;;;11.20;7.00;;;6.20;99.90;;;;;;2614169;54;20126;-76
2023/02/01 01:03:20;;;;;;;22.80;7.03;;;6.20;99.90;;;;;;2616048;54;20446;-76
2023/02/01 01:09:08;;;;;;;10.73;6.10;;;6.20;99.90;;;;;;2616190;39;20532;-75
2023/02/01 01:14:55;;;;;;;18.40;7.37;;;6.20;99.90;;;;;;2615651;54;20436;-76
2023/02/01 01:20:43;;;;;;;10.40;6.47;;;6.20;99.90;;;;;;2615232;54;20150;-76
2023/02/01 01:26:30;;;;;;;11.53;6.47;;;6.30;99.90;;;;;;2615301;54;20199;-75
2023/02/01 01:32:18;;;;;;;12.30;6.20;;;6.40;99.90;;;;;;2616490;54;20130;-76
2023/02/01 01:38:06;;;;;;;16.63;6.80;;;6.40;99.90;;;;;;2616085;54;20134;-76
2023/02/01 01:50:28;;;;;;;18.00;7.73;;;6.40;99.90;;;;;;2616991;39;20902;-77
2023/02/01 01:56:36;;;;;;;16.70;7.90;;;6.40;99.90;;;;;;2615220;54;20412;-76
2023/02/01 02:02:24;;;;;;;17.47;8.00;;;6.40;99.90;;;;;;2615654;39;21061;-76
2023/02/01 02:08:11;;;;;;;12.07;6.93;;;6.30;99.90;;;;;;2614367;54;20387;-75
2023/02/01 02:13:59;;;;;;;8.67;6.00;;;6.30;99.90;;;;;;2615280;54;20436;-75
2023/02/01 02:26:35;;;;;;;7.33;5.80;;;6.30;99.90;;;;;;2614245;54;20407;-76
2023/02/01 02:32:39;;;;;;;10.57;5.43;;;6.20;99.90;;;;;;2615811;54;20415;-76
2023/02/01 03:06:54;;;;;;;11.83;5.93;;;5.90;99.90;;;;;;2614581;54;20472;-76
2023/02/01 03:25:25;;;;;;;10.83;5.27;;;5.90;99.90;;;;;;2615596;54;20387;-76
2023/02/01 03:31:13;;;;;;;18.90;5.53;;;5.90;99.90;;;;;;2615301;54;20396;-75
2023/02/01 03:37:09;;;;;;;6.80;5.60;;;5.90;99.90;;;;;;2615744;54;20386;-76
2023/02/01 03:43:00;;;;;;;11.00;5.50;;;6.00;99.90;;;;;;2614927;39;20751;-76
2023/02/01 03:48:50;;;;;;;10.30;6.00;;;6.00;99.90;;;;;;2615008;54;20398;-75
2023/02/01 03:54:39;;;;;;;18.13;6.20;;;6.00;99.90;;;;;;2616144;39;20800;-76
2023/02/01 04:00:27;;;;;;;9.27;5.43;;;6.00;99.90;;;;;;2616435;39;20801;-75
2023/02/01 04:06:15;;;;;;;14.07;6.03;;;6.00;99.90;;;;;;2615910;54;20371;-76
2023/02/01 04:12:03;;;;;;;7.87;7.07;;;6.00;99.90;;;;;;2615540;54;20651;-76
2023/02/01 04:17:50;;;;;;;17.37;6.13;;;6.10;99.90;;;;;;2616364;39;20652;-77
2023/02/01 04:23:38;;;;;;;21.87;5.87;;;6.20;99.90;;;;;;2615746;54;20239;-77
2023/02/01 04:29:26;;;;;;;11.27;5.23;;;6.10;99.90;;;;;;2614829;54;20149;-77
2023/02/01 04:35:14;;;;;;;12.53;5.83;;;6.00;99.90;;;;;;2615236;54;20183;-77
2023/02/01 04:41:01;;;;;;;6.50;5.70;;;6.00;99.90;;;;;;2614301;54;20150;-76
2023/02/01 04:46:49;;;;;;;14.17;8.00;;;6.00;99.90;;;;;;2615764;54;20126;-77
2023/02/01 04:52:37;;;;;;;8.80;6.30;;;6.10;99.90;;;;;;2615363;54;20239;-77
2023/02/01 04:58:25;;;;;;;12.70;5.77;;;6.00;99.90;;;;;;2615017;54;20403;-76
2023/02/01 05:04:13;;;;;;;15.63;7.17;;;6.00;99.90;;;;;;2615062;54;20154;-76
2023/02/01 05:10:00;;;;;;;18.70;6.53;;;6.00;99.90;;;;;;2615791;54;20166;-76
2023/02/01 05:15:50;;;;;;;10.53;5.67;;;6.00;99.90;;;;;;2615693;54;20154;-77
2023/02/01 05:21:38;;;;;;;13.20;5.07;;;5.90;99.90;;;;;;2616069;39;20753;-77
2023/02/01 05:27:28;;;;;;;13.83;5.57;;;5.90;99.90;;;;;;2615684;54;20659;-76
2023/02/01 05:33:16;;;;;;;25.67;7.93;;;5.90;99.90;;;;;;2615165;54;20370;-78
2023/02/01 05:42:25;;;;;;;16.90;6.80;;;5.90;99.90;;;;;;2615260;54;20453;-77
2023/02/01 05:48:13;;;;;;;14.83;6.73;;;5.80;99.90;;;;;;2615588;54;20122;-75
2023/02/01 05:54:01;;;;;;;8.83;4.80;;;5.70;99.90;;;;;;2614322;54;20391;-76
2023/02/01 05:59:49;;;;;;;10.17;5.53;;;5.70;99.90;;;;;;2615731;54;20142;-76
2023/02/01 06:05:36;;;;;;;22.03;5.67;;;5.70;99.90;;;;;;2615870;54;20155;-76
2023/02/01 06:11:24;;;;;;;17.00;5.90;;;5.80;99.90;;;;;;2614666;54;20794;-75
2023/02/01 06:17:12;;;;;;;22.07;5.67;;;5.80;99.90;;;;;;2613606;54;20130;-77
2023/02/01 06:23:00;;;;;;;10.73;4.87;;;5.90;99.90;;;;;;2614991;54;20162;-76
2023/02/01 06:28:48;;;;;;;16.10;4.43;;;5.90;99.90;;;;;;2614900;54;20130;-75
2023/02/01 06:34:37;;;;;;;10.80;5.60;;;6.00;99.90;;;;;;2614052;54;20133;-76
2023/02/01 06:37:58;;;;;;;10.03;5.90;;;6.00;99.90;;;;;;2613903;47;20414;-76
2023/02/01 06:40:23;;;;;;;12.10;5.37;;;6.00;99.90;;;;;;2612848;46;20431;-75
2023/02/01 06:46:12;;;;;;;9.70;4.97;;;6.10;99.90;;;;;;2613326;54;20134;-75
2023/02/01 06:52:00;;;;;;;11.23;5.13;;;6.00;99.90;;;;;;2615905;54;20447;-76
2023/02/01 06:57:52;;;;;;;14.57;7.17;;;6.00;99.90;;;;;;2614798;54;20162;-76
2023/02/01 07:03:40;;;;;;;6.27;4.20;;;6.10;99.90;;;;;;2612730;54;20539;-77
2023/02/01 07:09:28;;;;;;;20.00;6.60;;;6.20;99.90;;;;;;2615079;54;20391;-77
2023/02/01 07:15:16;;;;;;;22.03;7.03;;;6.20;99.90;;;;;;2615629;54;20150;-75
2023/02/01 07:21:03;;;;;;;11.70;6.63;;;6.20;99.90;;;;;;2613457;54;20652;-76
2023/02/01 07:26:51;;;;;;;12.80;5.77;;;6.30;99.90;;;;;;2614533;54;20130;-75
2023/02/01 07:32:39;;;;;;;10.30;6.70;;;6.30;99.90;;;;;;2612858;54;20207;-76
2023/02/01 07:42:29;;;;;;;14.73;5.80;;;6.30;99.90;;;;;;2615454;54;20398;-75
2023/02/01 07:44:55;;;;;;;26.93;5.80;;;6.30;99.90;;;;;;2613147;54;20945;-76
2023/02/01 07:47:21;;;;;;;15.57;7.37;;;6.30;99.90;;;;;;2612212;54;20482;-76
2023/02/01 07:53:09;;;;;;;13.20;6.53;;;6.30;99.90;;;;;;2613874;54;20644;-76
2023/02/01 07:58:56;;;;;;;22.30;7.00;;;6.20;99.90;;;;;;2613931;54;20203;-75
2023/02/01 08:04:44;;;;;;;10.03;6.33;;;6.30;99.90;;;;;;2612741;54;20174;-76
2023/02/01 08:10:32;;;;;;;10.63;5.43;;;6.30;99.90;;;;;;2615998;39;20526;-76
2023/02/01 08:16:21;;;;;;;26.63;6.07;;;6.30;99.90;;;;;;2615724;54;20531;-76
2023/02/01 08:22:09;;;;;;;10.40;6.20;;;6.40;99.90;;;;;;2615576;54;20378;-77
2023/02/01 08:27:57;;;;;;;15.23;6.83;;;6.40;99.90;;;;;;2616326;54;20705;-76
2023/02/01 08:33:49;;;;;;;10.70;5.60;;;6.40;99.90;;;;;;2616375;39;20527;-76
2023/02/01 08:43:00;;;;;;;21.93;7.80;;;6.40;99.90;;;;;;2613941;39;20803;-75
2023/02/01 08:48:48;;;;;;;13.50;7.43;;;6.40;99.90;;;;;;2613593;54;20403;-76
2023/02/01 08:54:36;;;;;;;19.13;7.87;;;6.50;99.90;;;;;;2614678;54;20497;-76
2023/02/01 09:00:24;;;;;;;21.07;7.90;;;6.60;99.90;;;;;;2613257;39;20589;-75
2023/02/01 09:06:14;;;;;;;15.67;7.37;;;6.50;99.90;;;;;;2614966;54;20129;-75
2023/02/01 09:12:03;;;;;;;13.57;7.23;;;6.50;99.90;;;;;;2615240;54;20468;-75
2023/02/01 09:17:51;;;;;;;13.63;6.33;;;6.60;99.90;;;;;;2616001;54;20793;-76
2023/02/01 09:23:38;;;;;;;13.53;6.10;;;6.70;99.90;;;;;;2615175;54;20150;-74
2023/02/01 09:29:26;;;;;;;16.83;9.40;;;6.70;99.90;;;;;;2615756;54;20134;-76
2023/02/01 09:35:14;;;;;;;10.00;6.90;;;6.60;99.90;;;;;;2614783;54;20115;-76
2023/02/01 09:37:49;;;;;;;18.27;8.77;;;6.60;99.90;;;;;;2614637;47;20443;-75
2023/02/01 09:44:14;;;;;;;24.03;8.03;;;6.80;99.90;;;;;;2614543;54;20415;-75
2023/02/01 09:50:10;;;;;;;11.03;8.00;;;6.80;99.90;;;;;;2615302;54;20394;-74
2023/02/01 10:02:28;;;;;;;14.93;8.43;;;7.10;99.90;;;;;;2614938;54;20381;-75
2023/02/01 10:08:35;;;;;;;17.03;7.30;;;7.10;99.90;;;;;;2615623;54;20977;-75
2023/02/01 10:21:08;;;;;;;13.70;6.53;;;7.10;99.90;;;;;;2616684;31;20887;-76
2023/02/01 10:37:58;;;;;;;14.23;7.70;;;7.10;99.90;;;;;;2615871;54;20388;-76
2023/02/01 10:47:10;;;;;;;22.93;8.43;;;7.10;99.90;;;;;;2615919;54;20399;-75
2023/02/01 10:53:06;;;;;;;17.07;8.70;;;7.10;99.90;;;;;;2615839;54;20423;-76
2023/02/01 10:59:03;;;;;;;12.03;8.03;;;7.10;99.90;;;;;;2615000;54;20382;-76
2023/02/01 11:04:50;;;;;;;9.33;6.90;;;7.30;99.90;;;;;;2613490;54;20359;-75
2023/02/01 11:36:28;;;;;;;8.90;6.30;;;7.40;99.90;;;;;;2613603;54;20215;-75
2023/02/01 11:42:17;;;;;;;21.00;8.23;;;7.50;99.90;;;;;;2613421;54;20985;-76
2023/02/01 11:48:10;;;;;;;10.33;6.83;;;7.60;99.90;;;;;;2613918;54;20531;-75
2023/02/01 11:54:29;;;;;;;17.00;7.70;;;7.40;99.90;;;;;;2615925;54;20536;-76
2023/02/01 12:07:11;;;;;;;21.37;8.47;;;6.60;99.90;;;;;;2615262;46;20382;-76
2023/02/01 12:19:22;;;;;;;30.00;9.53;;;6.60;99.90;;;;;;2615125;54;20495;-75
2023/02/01 12:25:13;;;;;;;13.33;6.13;;;6.80;99.90;;;;;;2615253;54;21020;-76
2023/02/01 13:00:43;;;;;;;10.13;5.67;;;7.30;99.90;;;;;;2614511;39;20646;-76
2023/02/01 13:10:04;;;;;;;10.17;7.13;;;7.30;99.90;;;;;;2613296;54;20410;-75
2023/02/01 13:38:48;;;;;;;12.20;6.47;;;7.60;99.90;;;;;;2611737;54;20989;-76
2023/02/01 13:48:00;;;;;;;7.40;4.57;;;7.60;99.90;;;;;;2612333;54;20410;-77
2023/02/01 13:53:50;;;;;;;7.87;5.50;;;7.70;99.90;;;;;;2614188;54;20358;-76
2023/02/01 13:59:40;;;;;;;7.20;4.00;;;7.80;99.90;;;;;;2614737;54;20419;-76
2023/02/01 14:05:26;;;;;;;16.83;6.83;;;7.70;99.90;;;;;;2612329;54;20960;-76
2023/02/01 14:11:36;;;;;;;10.60;4.80;;;7.70;99.90;;;;;;2614980;54;20171;-76
2023/02/01 14:17:33;;;;;;;9.00;5.70;;;7.80;99.90;;;;;;2615706;54;20407;-76
2023/02/01 14:23:23;;;;;;;8.50;5.77;;;7.90;99.90;;;;;;2615693;39;20865;-77
2023/02/01 14:29:17;;;;;;;9.90;5.50;;;7.90;99.90;;;;;;2616060;54;21231;-76
2023/02/01 14:41:57;;;;;;;21.27;6.37;;;7.70;99.90;;;;;;2615491;54;20612;-77
2023/02/01 14:47:48;;;;;;;10.07;4.80;;;7.70;99.90;;;;;;2615022;54;20454;-75
2023/02/01 14:51:00;;;;;;;10.50;5.97;;;7.80;99.90;;;;;;2614302;54;20424;-75
2023/02/01 14:56:51;;;;;;;9.33;6.30;;;7.80;99.90;;;;;;2615311;54;20414;-75
2023/02/01 15:02:39;;;;;;;8.80;5.70;;;7.90;99.90;;;;;;2615499;54;20395;-75
2023/02/01 15:08:35;;;;;;;14.87;6.13;;;7.80;99.90;;;;;;2618439;54;20395;-74
2023/02/01 15:14:23;;;;;;;15.20;6.10;;;8.00;99.90;;;;;;2619368;54;20383;-75
2023/02/01 15:20:21;;;;;;;16.40;4.83;;;8.10;99.90;;;;;;2617945;54;20371;-75
2023/02/01 15:26:08;;;;;;;17.90;6.80;;;8.10;99.90;;;;;;2615926;54;20459;-75
2023/02/01 15:31:55;;;;;;;14.47;8.40;;;8.10;99.90;;;;;;2615757;54;20158;-76
2023/02/01 15:41:15;;;;;;;13.80;6.27;;;8.10;99.70;;;;;;2615529;54;20934;-77
2023/02/01 16:10:27;;;;;;;12.00;6.50;;;8.10;99.70;;;;;;2615296;54;20399;-76
2023/02/01 16:16:15;;;;;;;11.40;8.17;;;8.10;98.80;;;;;;2613462;54;20387;-77
2023/02/01 16:22:02;;;;;;;11.03;6.23;;;7.90;99.90;;;;;;2614142;54;20164;-76
2023/02/01 16:27:49;;;;;;;8.80;6.73;;;7.70;99.90;;;;;;2615192;54;20150;-75
2023/02/01 16:33:37;;;;;;;6.33;5.40;;;7.70;99.90;;;;;;2614062;54;20495;-76
2023/02/01 16:39:27;;;;;;;11.43;6.33;;;7.30;99.90;;;;;;2615945;54;20207;-76
2023/02/01 16:45:15;;;;;;;5.90;4.10;;;7.30;99.90;;;;;;2615210;54;20406;-76
2023/02/01 16:54:34;;;;;;;14.57;7.47;;;7.20;99.90;;;;;;2616218;39;20799;-75
2023/02/01 17:00:21;;;;;;;10.20;6.40;;;7.30;99.90;;;;;;2614448;54;20496;-76
2023/02/01 17:06:11;;;;;;;24.33;7.37;;;7.60;99.90;;;;;;2614252;46;20137;-76
2023/02/01 17:11:58;;;;;;;11.50;6.53;;;7.70;99.90;;;;;;2615064;54;20961;-76
2023/02/01 17:17:46;;;;;;;18.53;5.63;;;7.00;99.90;;;;;;2614510;54;20165;-79
2023/02/01 17:23:34;;;;;;;15.07;5.00;;;6.50;99.90;;;;;;2615934;54;20149;-76
2023/02/01 17:29:22;;;;;;;13.57;5.90;;;6.10;99.90;;;;;;2615063;46;20246;-76
2023/02/01 17:35:20;;;;;;;12.00;6.20;;;6.00;99.90;;;;;;2615256;54;20374;-76
2023/02/01 17:41:13;;;;;;;22.03;6.17;;;6.10;99.90;;;;;;2615681;54;20973;-76
2023/02/01 17:47:01;;;;;;;12.17;5.20;;;6.30;99.90;;;;;;2614865;54;21040;-76
2023/02/01 17:50:02;;;;;;;11.90;4.20;;;6.60;99.90;;;;;;2609884;54;20420;-75
2023/02/01 17:52:28;;;;;;;13.50;4.43;;;7.30;99.90;;;;;;2613824;54;20641;-77
2023/02/01 17:58:17;;;;;;;20.90;4.67;;;7.50;99.90;;;;;;2614468;54;21847;-77
2023/02/01 18:04:04;;;;;;;8.80;3.53;;;7.60;99.90;;;;;;2614739;54;20949;-77
2023/02/01 18:09:55;;;;;;;6.00;2.77;;;7.50;99.90;;;;;;2615566;54;20175;-77
2023/02/01 18:15:43;;;;;;;10.60;4.27;;;7.50;99.90;;;;;;2616304;39;20812;-77
2023/02/01 18:21:40;;;;;;;9.17;4.60;;;7.40;99.90;;;;;;2613353;54;20158;-76
2023/02/01 18:27:28;;;;;;;10.77;5.47;;;7.40;99.90;;;;;;2613996;54;20985;-76
2023/02/01 18:33:18;;;;;;;13.33;6.73;;;7.60;99.90;;;;;;2613262;54;20134;-77
2023/02/01 18:39:06;;;;;;;10.10;3.90;;;7.30;99.90;;;;;;2616665;54;20419;-76
2023/02/01 18:44:54;;;;;;;6.70;2.07;;;5.20;99.90;;;;;;2615820;54;20179;-77
2023/02/01 18:54:35;;;;;;;3.00;2.40;;;3.80;99.90;;;;;;2616972;31;20793;-76
2023/02/01 19:00:23;;;;;;;8.07;3.07;;;4.30;99.90;;;;;;2616447;54;20351;-76
2023/02/01 19:03:25;;;;;;;6.03;3.27;;;4.40;99.90;;;;;;2616532;54;20475;-77
2023/02/01 19:05:54;;;;;;;6.00;4.97;;;4.50;99.90;;;;;;2615152;54;20435;-77
2023/02/01 19:11:42;;;;;;;13.60;5.10;;;4.90;99.90;;;;;;2616353;54;20430;-76
2023/02/01 19:17:30;;;;;;;19.90;6.40;;;5.80;99.90;;;;;;2614143;46;20181;-77
2023/02/01 19:23:17;;;;;;;17.33;6.17;;;6.20;99.90;;;;;;2615584;54;20150;-78
2023/02/01 19:29:05;;;;;;;15.93;5.40;;;6.60;99.90;;;;;;2615735;54;20122;-77
2023/02/01 19:34:53;;;;;;;12.03;5.37;;;6.60;99.90;;;;;;2615653;54;20154;-77
2023/02/01 19:40:41;;;;;;;19.10;6.27;;;6.70;99.90;;;;;;2616010;54;20150;-76
2023/02/01 19:46:31;;;;;;;26.83;6.70;;;6.70;99.90;;;;;;2616176;54;20171;-78
2023/02/01 19:52:19;;;;;;;10.30;3.93;;;6.40;99.90;;;;;;2616114;54;20409;-78
2023/02/01 19:58:06;;;;;;;3.70;2.17;;;4.80;99.90;;;;;;2615801;54;20197;-77
2023/02/01 20:04:01;;;;;;;7.00;2.00;;;4.50;99.90;;;;;;2616296;54;20118;-77
2023/02/01 20:09:49;;;;;;;3.53;1.67;;;4.80;99.90;;;;;;2615421;54;20448;-78
2023/02/01 20:15:37;;;;;;;15.17;2.00;;;4.90;99.90;;;;;;2615548;54;20234;-78
2023/02/01 20:21:24;;;;;;;5.73;2.10;;;5.00;99.90;;;;;;2615629;54;20134;-78
2023/02/01 20:27:12;;;;;;;6.50;2.20;;;5.20;99.90;;;;;;2615684;54;20130;-77
2023/02/01 20:33:00;;;;;;;8.23;2.60;;;5.30;99.90;;;;;;2615198;54;20162;-77
2023/02/01 20:38:47;;;;;;;8.47;4.90;;;5.50;99.90;;;;;;2616417;39;20518;-77
2023/02/01 20:44:34;;;;;;;7.40;3.40;;;5.30;99.90;;;;;;2615916;54;20192;-78
2023/02/01 20:47:19;;;;;;;9.33;5.97;;;5.40;99.90;;;;;;2615710;47;20415;-79
2023/02/01 20:49:44;;;;;;;7.63;2.90;;;5.40;99.90;;;;;;2615899;54;20250;-79
2023/02/01 20:52:48;;;;;;;7.63;4.00;;;5.40;99.90;;;;;;2615062;47;20465;-78
2023/02/01 21:05:39;;;;;;;8.50;4.10;;;5.30;99.90;;;;;;2614803;54;20362;-77
2023/02/01 21:14:48;;;;;;;6.10;3.40;;;5.20;99.90;;;;;;2612325;54;20430;-77
2023/02/01 21:20:35;;;;;;;4.50;2.57;;;5.10;99.90;;;;;;2612569;54;20277;-78
2023/02/01 21:26:24;;;;;;;9.87;4.67;;;5.10;99.90;;;;;;2614168;54;20159;-78
2023/02/01 21:32:12;;;;;;;8.17;5.00;;;5.10;99.90;;;;;;2613771;54;20400;-78
2023/02/01 21:37:59;;;;;;;5.90;2.93;;;4.80;99.90;;;;;;2614934;54;20384;-78
2023/02/01 21:43:47;;;;;;;7.73;3.07;;;4.70;99.90;;;;;;2615337;54;20126;-78
2023/02/01 21:49:35;;;;;;;3.03;1.93;;;4.50;99.90;;;;;;2615904;54;20134;-77
2023/02/01 21:58:54;;;;;;;2.10;1.27;;;4.40;99.90;;;;;;2616309;54;20366;-78
2023/02/01 22:04:43;;;;;;;4.57;1.80;;;4.30;99.90;;;;;;2616234;54;20367;-77
2023/02/01 22:10:31;;;;;;;4.73;2.50;;;4.30;99.90;;;;;;2615695;54;20410;-78
2023/02/01 22:16:20;;;;;;;3.67;2.27;;;4.40;99.90;;;;;;2615918;54;20134;-77
2023/02/01 22:22:10;;;;;;;4.57;2.40;;;4.40;99.90;;;;;;2615906;54;20454;-78
2023/02/01 22:27:57;;;;;;;5.37;2.30;;;4.50;99.90;;;;;;2616773;54;20514;-77
2023/02/01 22:33:46;;;;;;;4.93;3.07;;;4.40;99.90;;;;;;2615930;54;20318;-78
2023/02/01 22:39:34;;;;;;;10.73;2.70;;;4.40;99.90;;;;;;2615725;54;20924;-77
2023/02/01 22:45:21;;;;;;;17.73;5.00;;;4.50;99.90;;;;;;2616189;54;20394;-78
2023/02/01 22:54:21;;;;;;;8.13;3.37;;;4.50;99.90;;;;;;2616131;54;20398;-77
2023/02/01 22:56:48;;;;;;;9.33;3.90;;;4.50;99.90;;;;;;2614930;47;20551;-79
2023/02/01 23:02:35;;;;;;;7.87;4.00;;;4.60;99.90;;;;;;2615186;54;20383;-77
2023/02/01 23:08:23;;;;;;;7.77;3.70;;;4.60;99.90;;;;;;2616326;31;20621;-77
2023/02/01 23:14:12;;;;;;;15.03;4.20;;;4.60;99.90;;;;;;2615583;54;20138;-78
2023/02/01 23:20:00;;;;;;;8.93;5.73;;;4.70;99.90;;;;;;2614859;54;21029;-77
2023/02/01 23:25:50;;;;;;;14.43;6.30;;;4.80;99.90;;;;;;2615961;54;20367;-77
2023/02/01 23:31:37;;;;;;;12.97;6.10;;;4.90;99.90;;;;;;2615947;54;21064;-77
2023/02/01 23:37:25;;;;;;;8.07;4.90;;;4.90;99.90;;;;;;2616010;54;20150;-77
2023/02/01 23:49:23;;;;;;;17.27;6.57;;;4.90;99.90;;;;;;2615310;54;20378;-78
2023/02/01 23:58:58;;;;;;;12.87;6.60;;;5.00;99.90;;;;;;2615253;54;20439;-77
